createdAt,value
2018-06-11T00:01:47.156Z,19.77
2018-06-11T00:04:21.906Z,20.40
2018-06-11T00:06:51.129Z,20.73
2018-06-11T00:09:20.264Z,20.40
2018-06-11T00:11:49.009Z,20.13
2018-06-11T00:14:17.782Z,18.80
2018-06-11T00:16:49.350Z,20.80
2018-06-11T00:19:42.812Z,19.03
2018-06-11T00:34:19.649Z,22.20
2018-06-11T00:39:47.520Z,24.10
2018-06-11T00:42:17.309Z,22.63
2018-06-11T00:44:54.952Z,24.47
2018-06-11T00:50:19.429Z,24.20
2018-06-11T00:52:52.728Z,26.57
2018-06-11T00:58:24.604Z,25.30
2018-06-11T01:00:59.243Z,25.37
2018-06-11T01:08:34.783Z,27.40
2018-06-11T01:11:11.447Z,27.53
2018-06-11T01:16:29.212Z,25.83
2018-06-11T01:19:15.147Z,28.00
2018-06-11T01:21:46.019Z,28.70
2018-06-11T01:27:11.506Z,27.60
2018-06-11T01:29:42.890Z,27.50
2018-06-11T01:32:16.751Z,28.37
2018-06-11T01:34:53.768Z,28.50
2018-06-11T01:37:33.523Z,27.93
2018-06-11T01:40:03.872Z,29.03
2018-06-11T01:42:35.946Z,26.77
2018-06-11T01:45:06.890Z,29.53
2018-06-11T01:47:44.046Z,30.67
2018-06-11T01:50:16.095Z,29.87
2018-06-11T01:52:47.331Z,32.80
2018-06-11T01:55:21.663Z,30.93
2018-06-11T01:57:52.608Z,32.00
2018-06-11T02:00:23.968Z,30.30
2018-06-11T02:03:01.221Z,32.37
2018-06-11T02:05:34.767Z,30.13
2018-06-11T02:08:07.560Z,30.83
2018-06-11T02:13:25.943Z,30.43
2018-06-11T02:16:01.649Z,31.60
2018-06-11T02:18:36.551Z,31.90
2018-06-11T02:21:12.778Z,33.63
2018-06-11T02:23:43.203Z,34.27
2018-06-11T02:26:12.699Z,31.90
2018-06-11T02:28:44.388Z,35.20
2018-06-11T02:31:13.029Z,31.93
2018-06-11T02:33:44.335Z,32.97
2018-06-11T02:36:21.977Z,36.27
2018-06-11T02:39:01.524Z,34.73
2018-06-11T02:44:14.546Z,32.33
2018-06-11T02:46:48.996Z,35.83
2018-06-11T02:49:28.048Z,34.50
2018-06-11T02:51:59.256Z,34.70
2018-06-11T02:54:32.750Z,35.73
2018-06-11T02:57:03.445Z,35.30
2018-06-11T02:59:43.263Z,35.60
2018-06-11T03:02:30.121Z,35.27
2018-06-11T03:05:03.260Z,36.20
2018-06-11T03:07:42.472Z,37.40
2018-06-11T03:10:14.767Z,36.20
2018-06-11T03:12:45.461Z,36.40
2018-06-11T03:18:18.211Z,37.30
2018-06-11T03:20:47.679Z,36.90
2018-06-11T03:23:17.362Z,40.07
2018-06-11T03:25:47.491Z,35.27
2018-06-11T03:28:18.933Z,38.57
2018-06-11T03:30:49.435Z,37.90
2018-06-11T03:36:09.376Z,38.50
2018-06-11T03:38:45.282Z,38.37
2018-06-11T03:41:15.328Z,40.20
2018-06-11T03:56:47.600Z,38.47
2018-06-11T03:59:22.223Z,40.50
2018-06-11T04:01:51.519Z,39.70
2018-06-11T04:04:21.963Z,40.30
2018-06-11T04:06:51.660Z,41.93
2018-06-11T04:09:25.027Z,39.23
2018-06-11T04:12:04.032Z,40.73
2018-06-11T04:15:20.401Z,39.50
2018-06-11T04:20:57.544Z,40.73
2018-06-11T04:23:27.109Z,37.30
2018-06-11T04:25:56.300Z,40.07
2018-06-11T04:28:29.349Z,38.47
2018-06-11T04:30:57.774Z,37.57
2018-06-11T04:33:26.169Z,40.27
2018-06-11T04:35:54.677Z,37.20
2018-06-11T04:38:23.119Z,40.87
2018-06-11T04:40:51.592Z,43.03
2018-06-11T04:43:19.921Z,40.50
2018-06-11T04:45:48.301Z,38.33
2018-06-11T04:48:16.721Z,41.07
2018-06-11T04:50:45.071Z,38.93
2018-06-11T04:53:13.451Z,37.97
2018-06-11T04:55:41.822Z,35.80
2018-06-11T04:58:10.237Z,38.27
2018-06-11T05:00:38.590Z,38.03
2018-06-11T05:03:06.945Z,36.93
2018-06-11T05:05:35.271Z,36.37
2018-06-11T05:08:03.632Z,35.73
2018-06-11T05:10:32.086Z,35.80
2018-06-11T05:13:00.454Z,35.27
2018-06-11T05:15:28.821Z,34.73
2018-06-11T05:17:57.188Z,34.10
2018-06-11T05:20:25.692Z,32.73
2018-06-11T05:22:54.270Z,33.30
2018-06-11T05:25:22.648Z,34.73
2018-06-11T05:27:51.012Z,36.70
2018-06-11T05:30:19.414Z,33.63
2018-06-11T05:32:47.755Z,32.87
2018-06-11T05:35:16.090Z,35.03
2018-06-11T05:37:44.439Z,35.50
2018-06-11T05:40:13.227Z,32.40
2018-06-11T05:42:41.785Z,30.97
2018-06-11T05:45:10.132Z,32.70
2018-06-11T05:47:38.442Z,33.50
2018-06-11T05:50:06.886Z,30.33
2018-06-11T05:52:35.240Z,31.60
2018-06-11T05:55:03.683Z,29.03
2018-06-11T05:57:32.030Z,29.40
2018-06-11T06:00:00.514Z,29.20
2018-06-11T06:02:28.933Z,29.63
2018-06-11T06:04:57.642Z,28.70
2018-06-11T06:07:26.242Z,29.87
2018-06-11T06:09:54.784Z,29.20
2018-06-11T06:12:23.190Z,27.30
2018-06-11T06:14:51.603Z,28.93
2018-06-11T06:17:20.162Z,28.57
2018-06-11T06:19:48.581Z,27.87
2018-06-11T06:22:17.518Z,26.63
2018-06-11T06:24:47.179Z,26.67
2018-06-11T06:27:16.846Z,30.47
2018-06-11T06:29:45.577Z,27.70
2018-06-11T06:32:15.766Z,27.90
2018-06-11T06:34:44.724Z,28.30
2018-06-11T06:37:14.974Z,27.70
2018-06-11T06:39:43.555Z,27.13
2018-06-11T06:42:13.498Z,27.30
2018-06-11T06:44:48.930Z,28.60
2018-06-11T06:47:19.761Z,27.27
2018-06-11T06:49:48.462Z,27.27
2018-06-11T06:52:17.260Z,27.97
2018-06-11T06:54:45.961Z,26.40
2018-06-11T06:57:14.709Z,24.20
2018-06-11T06:59:46.008Z,26.30
2018-06-11T07:02:14.766Z,24.70
2018-06-11T07:04:43.830Z,25.33
2018-06-11T07:07:13.654Z,24.10
2018-06-11T07:09:42.335Z,26.43
2018-06-11T07:15:07.901Z,23.33
2018-06-11T07:17:40.468Z,25.40
2018-06-11T07:29:25.708Z,26.47
2018-06-11T07:31:55.994Z,23.57
2018-06-11T07:34:24.621Z,22.90
2018-06-11T07:36:53.265Z,24.53
2018-06-11T07:39:21.852Z,25.20
2018-06-11T07:41:50.437Z,27.23
2018-06-11T07:44:18.851Z,22.53
2018-06-11T07:46:47.562Z,22.33
2018-06-11T07:49:16.011Z,21.73
2018-06-11T07:51:44.644Z,23.13
2018-06-11T07:54:12.973Z,22.20
2018-06-11T07:56:41.430Z,22.17
2018-06-11T07:59:10.189Z,21.07
2018-06-11T08:01:38.571Z,20.70
2018-06-11T08:04:06.965Z,19.70
2018-06-11T08:06:36.179Z,19.03
2018-06-11T08:09:07.402Z,21.27
2018-06-11T08:11:36.470Z,19.60
2018-06-11T08:14:05.050Z,20.57
2018-06-11T08:16:33.876Z,20.70
2018-06-11T08:19:02.702Z,20.07
2018-06-11T08:21:31.105Z,19.10
2018-06-11T08:23:59.707Z,18.63
2018-06-11T08:26:28.650Z,20.37
2018-06-11T08:29:01.053Z,18.40
2018-06-11T08:31:34.964Z,17.43
2018-06-11T08:35:06.264Z,19.30
2018-06-11T08:37:38.766Z,16.63
2018-06-11T08:40:15.946Z,17.93
2018-06-11T08:43:33.122Z,18.83
2018-06-11T09:34:05.341Z,16.87
2018-06-11T09:39:35.078Z,17.57
2018-06-11T09:55:06.929Z,17.10
2018-06-11T09:57:36.213Z,19.43
2018-06-11T10:00:07.876Z,18.87
2018-06-11T10:02:36.305Z,17.80
2018-06-11T10:05:08.100Z,17.97
2018-06-11T10:07:38.356Z,15.47
2018-06-11T10:10:35.513Z,16.63
2018-06-11T10:13:07.172Z,17.73
2018-06-11T10:15:44.141Z,18.73
2018-06-11T10:18:15.830Z,19.57
2018-06-11T10:20:45.063Z,19.17
2018-06-11T10:23:13.609Z,18.80
2018-06-11T10:25:42.157Z,16.80
2018-06-11T10:28:10.635Z,18.10
2018-06-11T10:30:39.845Z,19.60
2018-06-11T10:33:13.112Z,18.10
2018-06-11T10:35:42.928Z,19.00
2018-06-11T10:38:13.303Z,16.77
2018-06-11T10:40:44.921Z,15.60
2018-06-11T10:43:18.944Z,17.40
2018-06-11T10:45:49.122Z,17.80
2018-06-11T10:48:20.276Z,17.43
2018-06-11T10:50:51.708Z,17.90
2018-06-11T10:53:21.918Z,15.13
2018-06-11T10:55:52.551Z,14.10
2018-06-11T10:58:25.318Z,12.80
2018-06-11T11:00:54.314Z,15.20
2018-06-11T11:03:24.627Z,11.70
2018-06-11T11:05:54.689Z,11.03
2018-06-11T11:08:24.947Z,12.10
2018-06-11T11:10:54.345Z,11.77
2018-06-11T11:13:26.965Z,11.43
2018-06-11T11:15:58.784Z,11.23
2018-06-11T11:18:31.462Z,11.30
2018-06-11T11:21:03.785Z,10.77
2018-06-11T11:23:32.289Z,10.40
2018-06-11T11:26:03.229Z,10.50
2018-06-11T11:28:38.494Z,9.73
2018-06-11T11:31:12.675Z,8.87
2018-06-11T11:33:42.411Z,9.33
2018-06-11T11:36:11.561Z,8.90
2018-06-11T11:38:41.454Z,8.03
2018-06-11T11:41:10.455Z,7.50
2018-06-11T11:43:39.385Z,6.70
2018-06-11T11:46:08.991Z,7.50
2018-06-11T11:48:37.788Z,6.30
2018-06-11T11:51:08.749Z,6.77
2018-06-11T11:53:37.957Z,8.03
2018-06-11T11:56:07.464Z,7.13
2018-06-11T11:58:36.300Z,7.10
2018-06-11T12:01:06.038Z,6.23
2018-06-11T12:03:34.950Z,6.90
2018-06-11T12:06:07.827Z,6.50
2018-06-11T12:11:43.364Z,7.50
2018-06-11T12:14:28.146Z,7.90
2018-06-11T12:17:01.146Z,6.97
2018-06-11T12:19:33.819Z,6.30
2018-06-11T12:22:06.253Z,7.03
2018-06-11T12:24:36.056Z,6.93
2018-06-11T12:27:05.392Z,5.90
2018-06-11T12:29:34.302Z,5.70
2018-06-11T12:32:05.857Z,7.10
2018-06-11T12:34:39.979Z,6.90
2018-06-11T12:37:26.866Z,5.20
2018-06-11T12:39:55.829Z,8.80
2018-06-11T12:42:24.445Z,5.90
2018-06-11T12:44:54.258Z,5.43
2018-06-11T12:47:23.503Z,6.17
2018-06-11T12:49:54.285Z,4.70
2018-06-11T12:52:39.085Z,4.73
2018-06-11T12:55:09.266Z,4.60
2018-06-11T12:57:40.039Z,5.63
2018-06-11T13:00:35.706Z,4.43
2018-06-11T13:03:04.542Z,5.00
2018-06-11T13:05:37.026Z,4.90
2018-06-11T13:08:05.709Z,3.80
2018-06-11T13:10:35.625Z,4.60
2018-06-11T13:13:04.249Z,4.57
2018-06-11T13:15:33.892Z,4.10
2018-06-11T13:18:02.830Z,4.47
2018-06-11T13:20:31.386Z,4.20
2018-06-11T13:23:00.568Z,4.63
2018-06-11T13:25:29.134Z,5.10
2018-06-11T13:28:04.859Z,5.43
2018-06-11T13:30:34.533Z,4.87
2018-06-11T13:33:03.215Z,5.03
2018-06-11T13:35:39.677Z,5.40
2018-06-11T13:38:09.808Z,5.57
2018-06-11T13:40:38.233Z,5.70
2018-06-11T13:43:06.819Z,6.50
2018-06-11T13:45:41.130Z,5.40
2018-06-11T13:48:36.815Z,6.07
2018-06-11T13:51:10.189Z,5.63
2018-06-11T13:53:38.538Z,5.77
2018-06-11T13:56:07.286Z,4.97
2018-06-11T13:58:35.696Z,5.20
2018-06-11T14:01:04.195Z,5.67
2018-06-11T14:03:32.655Z,4.70
2018-06-11T14:06:01.075Z,4.90
2018-06-11T14:08:32.239Z,5.20
2018-06-11T14:11:01.886Z,5.63
2018-06-11T14:13:36.264Z,5.63
2018-06-11T14:16:12.425Z,5.40
2018-06-11T22:19:10.289Z,7.70
2018-06-11T22:21:39.236Z,6.83
2018-06-11T22:24:07.820Z,8.70
2018-06-11T22:26:36.463Z,8.07
2018-06-11T22:29:04.986Z,6.70
2018-06-11T22:31:33.782Z,9.97
2018-06-11T22:34:04.032Z,8.17
2018-06-11T22:36:32.563Z,9.27
2018-06-11T22:39:01.225Z,8.00
2018-06-11T22:41:29.912Z,8.50
2018-06-11T22:43:58.281Z,9.17
2018-06-11T22:46:26.679Z,9.37
2018-06-11T22:48:55.009Z,9.50
2018-06-11T22:51:23.402Z,10.43
2018-06-11T22:53:51.780Z,8.87
2018-06-11T22:56:20.157Z,9.90
2018-06-11T22:58:49.145Z,9.30
2018-06-11T23:01:17.737Z,9.10
2018-06-11T23:03:46.650Z,9.70
2018-06-11T23:06:14.990Z,9.80
2018-06-11T23:08:43.352Z,10.37
2018-06-11T23:11:11.681Z,9.10
2018-06-11T23:13:39.991Z,9.00
2018-06-11T23:16:08.276Z,8.43
2018-06-11T23:18:36.696Z,8.90
2018-06-11T23:21:05.040Z,9.73
2018-06-11T23:23:33.622Z,9.30
2018-06-11T23:26:02.381Z,9.67
2018-06-11T23:28:30.762Z,9.37
2018-06-11T23:30:59.121Z,9.50
2018-06-11T23:33:27.705Z,9.30
2018-06-11T23:35:56.564Z,10.40
2018-06-11T23:38:25.139Z,11.40
2018-06-11T23:40:53.481Z,10.50
2018-06-11T23:43:21.848Z,11.17
2018-06-11T23:45:50.254Z,8.80
2018-06-11T23:48:18.320Z,10.70
2018-06-11T23:50:46.792Z,13.20
2018-06-11T23:53:15.139Z,10.93
2018-06-11T23:55:43.496Z,10.63
2018-06-11T23:58:11.987Z,12.00
